Time;durP1;ratioP1;P1;durP2;ratioP2;P2;SDS_P1;SDS_P2;PMS_P1;PMS_P2;Temp;Humidity;BMP_temperature;BMP_pressure;BME280_temperature;BME280_humidity;BME280_pressure;Samples;Min_cycle;Max_cycle;Signal;HPM_P1;HPM_P2
2021/06/27 00:01:42;;;;;;;38.17;24.23;;;;;;;;;;4974529;28;20026;-74
2021/06/27 00:04:13;;;;;;;34.63;24.70;;;;;;;;;;4989436;28;20029;-74
2021/06/27 00:06:38;;;;;;;37.35;25.55;;;;;;;;;;4972824;28;20573;-75
2021/06/27 00:09:04;;;;;;;42.67;25.08;;;;;;;;;;4972969;28;20030;-75
2021/06/27 00:11:30;;;;;;;43.67;25.55;;;;;;;;;;5004605;28;20027;-74
2021/06/27 00:13:55;;;;;;;35.78;24.00;;;;;;;;;;4974139;28;20483;-74
2021/06/27 00:16:21;;;;;;;33.15;23.40;;;;;;;;;;4974047;28;20054;-74
2021/06/27 00:18:47;;;;;;;39.38;25.02;;;;;;;;;;4972660;28;20106;-75
2021/06/27 00:21:14;;;;;;;37.92;24.20;;;;;;;;;;4974591;28;20098;-74
2021/06/27 00:23:45;;;;;;;36.10;24.60;;;;;;;;;;5005569;28;20101;-76
2021/06/27 00:26:14;;;;;;;38.60;24.35;;;;;;;;;;5004725;28;20399;-73
2021/06/27 00:28:41;;;;;;;43.53;24.58;;;;;;;;;;4972527;28;20373;-74
2021/06/27 00:31:07;;;;;;;43.70;24.85;;;;;;;;;;4988478;28;20113;-74
2021/06/27 00:33:32;;;;;;;32.78;23.75;;;;;;;;;;4972479;28;20102;-73
2021/06/27 00:35:58;;;;;;;36.17;24.48;;;;;;;;;;4972290;28;20027;-74
2021/06/27 00:38:24;;;;;;;36.60;24.48;;;;;;;;;;4973597;28;20030;-73
2021/06/27 00:40:51;;;;;;;36.80;24.55;;;;;;;;;;4972063;28;20018;-74
2021/06/27 00:43:16;;;;;;;39.03;24.48;;;;;;;;;;4972168;28;20023;-74
2021/06/27 00:45:42;;;;;;;37.35;23.90;;;;;;;;;;4972547;28;20038;-74
2021/06/27 00:48:08;;;;;;;34.45;24.25;;;;;;;;;;4973605;28;20486;-74
2021/06/27 00:50:47;;;;;;;38.38;24.23;;;;;;;;;;4972070;28;20390;-73
2021/06/27 00:53:14;;;;;;;39.10;24.88;;;;;;;;;;4972239;28;20030;-73
2021/06/27 00:55:40;;;;;;;37.70;25.42;;;;;;;;;;4973260;28;20050;-73
2021/06/27 00:58:06;;;;;;;41.22;25.73;;;;;;;;;;4973264;28;20033;-74
2021/06/27 01:00:34;;;;;;;46.85;26.17;;;;;;;;;;4973133;28;20034;-74
2021/06/27 01:03:00;;;;;;;34.22;24.60;;;;;;;;;;4973239;28;20030;-73
2021/06/27 01:05:29;;;;;;;37.58;25.33;;;;;;;;;;4972598;28;20031;-76
2021/06/27 01:07:56;;;;;;;39.00;25.00;;;;;;;;;;4973359;28;20105;-74
2021/06/27 01:10:22;;;;;;;39.25;24.70;;;;;;;;;;4971844;28;20117;-75
2021/06/27 01:12:48;;;;;;;41.83;24.70;;;;;;;;;;4971622;28;20401;-74
2021/06/27 01:15:14;;;;;;;42.13;26.30;;;;;;;;;;4973407;28;20027;-74
2021/06/27 01:17:42;;;;;;;37.67;24.95;;;;;;;;;;4972926;28;20023;-75
2021/06/27 01:20:18;;;;;;;48.03;24.75;;;;;;;;;;4972962;28;20363;-74
2021/06/27 01:22:43;;;;;;;39.67;24.77;;;;;;;;;;4973106;28;20116;-74
2021/06/27 01:25:11;;;;;;;35.95;23.38;;;;;;;;;;4972533;28;20280;-74
2021/06/27 01:27:37;;;;;;;38.38;23.48;;;;;;;;;;4972717;28;20030;-75
2021/06/27 01:30:07;;;;;;;42.13;24.85;;;;;;;;;;4971554;28;20023;-75
2021/06/27 01:32:32;;;;;;;39.20;23.67;;;;;;;;;;4971345;28;20022;-75
2021/06/27 01:34:57;;;;;;;35.17;23.25;;;;;;;;;;4971593;28;20037;-75
2021/06/27 01:37:23;;;;;;;39.58;23.88;;;;;;;;;;4973042;28;20022;-73
2021/06/27 01:39:50;;;;;;;40.95;24.30;;;;;;;;;;4972695;28;20387;-74
2021/06/27 01:42:15;;;;;;;36.90;23.88;;;;;;;;;;4972532;28;20034;-75
2021/06/27 01:44:41;;;;;;;34.47;23.33;;;;;;;;;;4972507;28;20080;-75
2021/06/27 01:47:07;;;;;;;36.58;24.02;;;;;;;;;;4972796;28;20030;-76
2021/06/27 01:49:32;;;;;;;36.05;24.05;;;;;;;;;;5003553;28;20026;-75
2021/06/27 01:51:58;;;;;;;35.28;23.35;;;;;;;;;;4971044;28;20034;-75
2021/06/27 01:54:24;;;;;;;35.28;25.00;;;;;;;;;;4972492;28;20047;-74
2021/06/27 01:56:50;;;;;;;40.60;26.08;;;;;;;;;;4972120;28;20029;-75
2021/06/27 01:59:15;;;;;;;42.03;25.45;;;;;;;;;;4972292;28;20408;-75
2021/06/27 02:01:42;;;;;;;37.35;24.45;;;;;;;;;;4971971;28;20511;-74
2021/06/27 02:04:09;;;;;;;40.42;24.25;;;;;;;;;;4971152;28;20694;-75
2021/06/27 02:06:36;;;;;;;36.22;24.17;;;;;;;;;;4972031;28;20027;-75
2021/06/27 02:09:06;;;;;;;40.10;23.08;;;;;;;;;;4972169;28;20029;-73
2021/06/27 02:11:31;;;;;;;48.15;25.45;;;;;;;;;;4970357;28;20213;-75
2021/06/27 02:13:57;;;;;;;36.08;23.40;;;;;;;;;;4970719;28;20125;-74
2021/06/27 02:16:23;;;;;;;38.03;23.88;;;;;;;;;;4971934;28;20058;-73
2021/06/27 02:18:50;;;;;;;35.25;24.20;;;;;;;;;;4970942;28;20031;-74
2021/06/27 02:21:21;;;;;;;41.13;23.98;;;;;;;;;;5002817;28;20033;-74
2021/06/27 02:23:47;;;;;;;41.13;24.55;;;;;;;;;;4970249;28;20117;-74
2021/06/27 02:26:13;;;;;;;39.28;24.13;;;;;;;;;;4971588;28;20462;-75
2021/06/27 02:28:39;;;;;;;36.38;23.95;;;;;;;;;;4970208;28;20122;-74
2021/06/27 02:31:05;;;;;;;41.50;24.17;;;;;;;;;;4971887;28;20554;-74
2021/06/27 02:33:31;;;;;;;34.90;22.73;;;;;;;;;;4970178;28;20121;-74
2021/06/27 02:35:58;;;;;;;43.15;23.00;;;;;;;;;;5002430;28;20544;-74
2021/06/27 02:38:24;;;;;;;41.15;24.33;;;;;;;;;;4971337;28;20065;-73
2021/06/27 02:40:51;;;;;;;40.28;23.98;;;;;;;;;;4971302;28;20073;-73
2021/06/27 02:43:20;;;;;;;40.13;24.30;;;;;;;;;;4970053;28;20041;-74
2021/06/27 02:45:46;;;;;;;37.42;24.80;;;;;;;;;;5002015;28;20062;-72
2021/06/27 02:48:12;;;;;;;35.75;23.63;;;;;;;;;;4971864;28;20402;-75
2021/06/27 02:50:39;;;;;;;36.42;23.23;;;;;;;;;;4971135;28;20030;-74
2021/06/27 02:53:05;;;;;;;44.03;23.60;;;;;;;;;;4971439;28;20031;-73
2021/06/27 02:55:31;;;;;;;38.03;23.30;;;;;;;;;;4971078;28;20058;-73
2021/06/27 02:57:57;;;;;;;38.17;25.08;;;;;;;;;;4969677;28;20376;-73
2021/06/27 03:00:23;;;;;;;42.63;26.75;;;;;;;;;;5002391;28;20566;-73
2021/06/27 03:02:49;;;;;;;36.25;22.98;;;;;;;;;;4970849;28;20034;-75
2021/06/27 03:05:17;;;;;;;42.53;24.30;;;;;;;;;;4971072;28;20085;-73
2021/06/27 03:07:42;;;;;;;38.53;24.48;;;;;;;;;;4970693;28;20475;-74
2021/06/27 03:10:11;;;;;;;44.08;24.98;;;;;;;;;;4970977;28;20092;-74
2021/06/27 03:12:40;;;;;;;34.10;22.95;;;;;;;;;;4971137;28;20038;-74
2021/06/27 03:15:07;;;;;;;39.67;23.20;;;;;;;;;;4969583;28;20060;-75
2021/06/27 03:17:33;;;;;;;42.85;24.15;;;;;;;;;;4969545;28;20347;-74
2021/06/27 03:19:58;;;;;;;41.83;24.58;;;;;;;;;;4969213;28;20380;-74
2021/06/27 03:22:24;;;;;;;41.47;23.63;;;;;;;;;;4970766;28;20034;-75
2021/06/27 03:24:49;;;;;;;38.20;22.67;;;;;;;;;;4970700;28;20069;-76
2021/06/27 03:27:15;;;;;;;42.20;22.70;;;;;;;;;;4970753;28;20398;-75
2021/06/27 03:29:41;;;;;;;42.50;22.58;;;;;;;;;;4969000;28;20038;-75
2021/06/27 03:32:06;;;;;;;38.47;23.55;;;;;;;;;;4970693;28;20031;-75
2021/06/27 03:34:32;;;;;;;40.72;23.98;;;;;;;;;;4970814;28;20030;-74
2021/06/27 03:36:58;;;;;;;39.03;24.13;;;;;;;;;;4970420;28;20041;-74
2021/06/27 03:39:23;;;;;;;41.55;25.48;;;;;;;;;;4969328;28;20374;-76
2021/06/27 03:41:53;;;;;;;39.00;23.80;;;;;;;;;;4970874;28;20357;-74
2021/06/27 03:44:19;;;;;;;34.00;22.58;;;;;;;;;;4969194;28;20177;-73
2021/06/27 03:46:45;;;;;;;35.92;23.70;;;;;;;;;;4969253;28;20109;-74
2021/06/27 03:49:10;;;;;;;39.17;24.27;;;;;;;;;;4969349;28;20471;-75
2021/06/27 03:51:36;;;;;;;42.55;24.08;;;;;;;;;;4970898;28;20023;-74
2021/06/27 03:54:02;;;;;;;38.45;23.90;;;;;;;;;;4968617;28;20446;-74
2021/06/27 03:56:29;;;;;;;36.33;23.50;;;;;;;;;;4970372;28;20031;-75
2021/06/27 03:58:54;;;;;;;41.65;24.52;;;;;;;;;;4968746;28;20029;-74
2021/06/27 04:01:21;;;;;;;35.75;23.65;;;;;;;;;;4970441;28;20134;-74
2021/06/27 04:03:46;;;;;;;42.60;24.33;;;;;;;;;;5001329;28;20074;-75
2021/06/27 04:06:12;;;;;;;40.80;22.00;;;;;;;;;;4970389;28;20069;-75
2021/06/27 04:08:37;;;;;;;42.08;23.70;;;;;;;;;;4970737;28;20050;-75
2021/06/27 04:11:03;;;;;;;38.30;23.40;;;;;;;;;;4969978;28;20045;-75
2021/06/27 04:13:31;;;;;;;46.50;21.95;;;;;;;;;;5001511;28;20525;-74
2021/06/27 04:15:59;;;;;;;34.95;21.92;;;;;;;;;;4969965;28;20039;-74
2021/06/27 04:18:25;;;;;;;34.42;22.58;;;;;;;;;;4970214;28;20033;-74
2021/06/27 04:20:55;;;;;;;35.75;23.85;;;;;;;;;;4970066;28;20502;-74
2021/06/27 04:23:21;;;;;;;38.75;23.15;;;;;;;;;;4970255;28;20089;-75
2021/06/27 04:25:47;;;;;;;40.05;22.75;;;;;;;;;;4969858;28;20050;-75
2021/06/27 04:28:13;;;;;;;37.50;24.83;;;;;;;;;;4970170;28;20055;-75
2021/06/27 04:30:39;;;;;;;38.90;23.98;;;;;;;;;;4970329;28;20423;-75
2021/06/27 04:33:07;;;;;;;40.40;23.55;;;;;;;;;;4970509;28;20522;-75
2021/06/27 04:35:35;;;;;;;38.08;23.13;;;;;;;;;;5001119;28;20030;-75
2021/06/27 04:38:06;;;;;;;37.75;21.90;;;;;;;;;;4968616;28;20031;-74
2021/06/27 04:40:33;;;;;;;36.70;22.80;;;;;;;;;;4970376;28;20481;-74
2021/06/27 04:42:58;;;;;;;37.38;22.67;;;;;;;;;;4988360;28;20506;-74
2021/06/27 04:45:24;;;;;;;31.35;22.90;;;;;;;;;;4972007;28;20027;-75
2021/06/27 04:47:49;;;;;;;41.33;23.50;;;;;;;;;;4973278;28;20030;-73
2021/06/27 04:50:15;;;;;;;37.78;23.73;;;;;;;;;;4972190;28;20042;-75
2021/06/27 04:52:41;;;;;;;37.92;21.98;;;;;;;;;;4988078;28;20089;-74
2021/06/27 04:55:07;;;;;;;33.92;22.90;;;;;;;;;;4971666;28;20055;-74
2021/06/27 04:57:33;;;;;;;39.78;23.65;;;;;;;;;;4972092;28;20104;-74
2021/06/27 04:59:59;;;;;;;36.83;23.25;;;;;;;;;;4971785;28;20035;-74
2021/06/27 05:02:25;;;;;;;34.25;22.63;;;;;;;;;;4973464;28;20034;-73
2021/06/27 05:04:50;;;;;;;39.25;23.10;;;;;;;;;;4973201;28;20245;-74
2021/06/27 05:07:16;;;;;;;34.80;22.48;;;;;;;;;;4987917;28;20030;-75
2021/06/27 05:09:41;;;;;;;36.95;23.00;;;;;;;;;;4971833;28;20376;-76
2021/06/27 05:12:08;;;;;;;36.10;22.27;;;;;;;;;;5004115;28;20038;-74
2021/06/27 05:14:34;;;;;;;37.00;23.15;;;;;;;;;;5004059;28;20117;-73
2021/06/27 05:16:59;;;;;;;38.13;22.08;;;;;;;;;;4971303;28;20500;-74
2021/06/27 05:19:25;;;;;;;42.30;24.77;;;;;;;;;;4971604;28;20109;-74
2021/06/27 05:21:51;;;;;;;40.72;22.67;;;;;;;;;;4972654;28;20037;-74
2021/06/27 05:24:19;;;;;;;37.90;23.83;;;;;;;;;;4971334;28;20031;-74
2021/06/27 05:26:46;;;;;;;38.78;22.40;;;;;;;;;;4971157;28;20034;-74
2021/06/27 05:29:12;;;;;;;35.30;22.95;;;;;;;;;;4972902;28;20027;-74
2021/06/27 05:31:38;;;;;;;35.47;24.90;;;;;;;;;;4972626;28;20082;-74
2021/06/27 05:34:04;;;;;;;37.80;23.70;;;;;;;;;;5003537;28;20034;-75
2021/06/27 05:36:29;;;;;;;41.70;23.42;;;;;;;;;;4972668;28;20038;-74
2021/06/27 05:38:55;;;;;;;36.42;23.63;;;;;;;;;;4972612;28;20109;-73
2021/06/27 05:41:21;;;;;;;39.20;23.85;;;;;;;;;;4972447;28;20048;-74
2021/06/27 05:43:46;;;;;;;38.53;25.15;;;;;;;;;;5003207;28;20085;-74
2021/06/27 05:46:12;;;;;;;34.72;22.23;;;;;;;;;;4972790;28;20580;-74
2021/06/27 05:48:38;;;;;;;38.97;23.42;;;;;;;;;;4972207;28;20082;-75
2021/06/27 05:51:03;;;;;;;37.60;22.15;;;;;;;;;;4970709;28;20045;-75
2021/06/27 05:53:29;;;;;;;33.72;22.30;;;;;;;;;;4972455;28;20117;-74
2021/06/27 05:56:27;;;;;;;41.38;24.17;;;;;;;;;;4970590;28;20054;-74
2021/06/27 05:58:47;;;;;;;42.15;24.35;;;;;;;;;;4969780;28;20382;-74
2021/06/27 06:01:15;;;;;;;38.78;22.58;;;;;;;;;;4972388;28;20042;-75
2021/06/27 06:03:41;;;;;;;33.95;21.60;;;;;;;;;;4970954;28;20033;-75
2021/06/27 06:06:08;;;;;;;37.20;22.38;;;;;;;;;;5002781;28;20279;-75
2021/06/27 06:08:34;;;;;;;38.53;23.60;;;;;;;;;;5003301;28;20073;-72
2021/06/27 06:11:01;;;;;;;37.67;23.55;;;;;;;;;;4971761;28;20102;-74
2021/06/27 06:13:26;;;;;;;37.80;24.10;;;;;;;;;;4972201;28;20383;-74
2021/06/27 06:15:52;;;;;;;34.25;22.30;;;;;;;;;;4971597;28;20031;-74
2021/06/27 06:18:18;;;;;;;42.80;24.50;;;;;;;;;;4970452;28;20066;-75
2021/06/27 06:20:44;;;;;;;38.28;23.83;;;;;;;;;;4971743;28;20403;-75
2021/06/27 06:23:09;;;;;;;39.95;24.65;;;;;;;;;;4970269;28;20538;-74
2021/06/27 06:25:35;;;;;;;40.25;24.63;;;;;;;;;;4971557;28;20502;-74
2021/06/27 06:28:02;;;;;;;44.42;24.63;;;;;;;;;;4971216;28;20023;-76
2021/06/27 06:30:27;;;;;;;38.25;24.77;;;;;;;;;;4972079;28;20042;-75
2021/06/27 06:32:55;;;;;;;39.72;24.77;;;;;;;;;;4971544;28;20458;-77
2021/06/27 06:35:22;;;;;;;38.13;24.67;;;;;;;;;;4971816;28;20546;-73
2021/06/27 06:37:48;;;;;;;40.28;25.15;;;;;;;;;;4971151;28;20038;-74
2021/06/27 06:40:14;;;;;;;36.55;24.05;;;;;;;;;;5002527;28;20034;-74
2021/06/27 06:42:39;;;;;;;36.65;24.10;;;;;;;;;;4971544;28;20024;-74
2021/06/27 06:45:06;;;;;;;35.90;25.17;;;;;;;;;;4971062;28;20018;-74
2021/06/27 06:47:31;;;;;;;38.53;24.88;;;;;;;;;;4969851;28;20035;-74
2021/06/27 06:49:57;;;;;;;39.28;24.73;;;;;;;;;;4971247;28;20038;-76
2021/06/27 06:52:23;;;;;;;36.38;22.75;;;;;;;;;;4971200;28;20034;-74
2021/06/27 06:54:48;;;;;;;34.78;22.83;;;;;;;;;;4971025;28;20138;-75
2021/06/27 06:57:16;;;;;;;34.80;22.15;;;;;;;;;;4969832;28;20074;-75
2021/06/27 06:59:41;;;;;;;42.95;23.90;;;;;;;;;;4970979;28;20049;-75
2021/06/27 07:02:08;;;;;;;34.00;21.90;;;;;;;;;;4971084;28;20536;-74
2021/06/27 07:04:33;;;;;;;36.80;23.20;;;;;;;;;;4970558;28;20078;-75
2021/06/27 07:06:59;;;;;;;34.00;21.80;;;;;;;;;;5002048;28;20026;-75
2021/06/27 07:09:25;;;;;;;32.20;20.70;;;;;;;;;;4970827;28;20026;-76
2021/06/27 07:11:50;;;;;;;34.35;21.27;;;;;;;;;;4970336;28;20300;-74
2021/06/27 07:14:16;;;;;;;32.50;21.67;;;;;;;;;;4969487;28;20027;-74
2021/06/27 07:16:41;;;;;;;28.05;19.05;;;;;;;;;;4970912;28;20436;-74
2021/06/27 07:19:07;;;;;;;33.42;19.92;;;;;;;;;;4969199;28;20031;-74
2021/06/27 07:21:32;;;;;;;37.22;22.98;;;;;;;;;;4970747;28;20375;-74
2021/06/27 07:23:58;;;;;;;43.10;20.85;;;;;;;;;;4970820;28;20026;-76
2021/06/27 07:26:24;;;;;;;36.63;22.20;;;;;;;;;;4970816;28;20092;-75
2021/06/27 07:28:50;;;;;;;32.00;21.13;;;;;;;;;;4970345;28;20018;-75
2021/06/27 07:31:16;;;;;;;30.70;21.63;;;;;;;;;;4969183;28;20037;-76
2021/06/27 07:33:42;;;;;;;31.65;22.15;;;;;;;;;;4970641;28;20117;-74
2021/06/27 07:36:07;;;;;;;35.90;23.00;;;;;;;;;;4970323;28;20031;-75
2021/06/27 07:38:33;;;;;;;34.95;22.70;;;;;;;;;;4969124;28;20027;-76
2021/06/27 07:41:01;;;;;;;30.85;20.77;;;;;;;;;;4969046;28;20034;-75
2021/06/27 07:43:27;;;;;;;35.28;21.77;;;;;;;;;;4970344;28;20057;-74
2021/06/27 07:45:52;;;;;;;35.58;23.90;;;;;;;;;;4984699;28;20039;-75
2021/06/27 07:48:18;;;;;;;35.50;21.70;;;;;;;;;;4970582;28;20023;-76
2021/06/27 07:50:44;;;;;;;31.08;21.45;;;;;;;;;;4970541;28;20026;-75
2021/06/27 07:53:09;;;;;;;33.05;22.63;;;;;;;;;;4968598;28;20475;-74
2021/06/27 07:55:35;;;;;;;39.55;22.83;;;;;;;;;;4970482;28;20415;-77
2021/06/27 07:58:01;;;;;;;37.33;22.63;;;;;;;;;;4970453;28;20039;-76
2021/06/27 08:00:29;;;;;;;34.53;21.15;;;;;;;;;;4985133;28;20026;-77
2021/06/27 08:02:56;;;;;;;32.97;20.92;;;;;;;;;;5000623;28;20482;-75
2021/06/27 08:05:22;;;;;;;28.73;19.77;;;;;;;;;;4970051;28;20037;-76
2021/06/27 08:07:47;;;;;;;26.25;18.27;;;;;;;;;;4970174;28;20094;-75
2021/06/27 08:10:13;;;;;;;25.30;17.40;;;;;;;;;;4969995;28;20057;-76
2021/06/27 08:12:41;;;;;;;33.42;17.95;;;;;;;;;;4970275;28;20490;-76
2021/06/27 08:15:08;;;;;;;27.55;16.02;;;;;;;;;;4970236;28;20031;-75
2021/06/27 08:17:34;;;;;;;21.08;14.65;;;;;;;;;;4974326;28;20069;-76
2021/06/27 08:20:00;;;;;;;25.30;14.68;;;;;;;;;;4976236;28;20022;-75
2021/06/27 08:22:26;;;;;;;26.58;14.73;;;;;;;;;;4975804;28;20050;-77
2021/06/27 08:24:51;;;;;;;23.30;15.90;;;;;;;;;;4973847;28;20139;-76
2021/06/27 08:27:17;;;;;;;21.25;14.48;;;;;;;;;;4973505;28;20033;-76
2021/06/27 08:29:42;;;;;;;18.10;13.18;;;;;;;;;;4972380;28;20026;-75
2021/06/27 08:32:11;;;;;;;24.92;15.45;;;;;;;;;;4972170;28;20026;-75
2021/06/27 08:34:36;;;;;;;21.77;16.23;;;;;;;;;;4973947;28;20098;-76
2021/06/27 08:37:02;;;;;;;20.33;14.60;;;;;;;;;;4973605;28;20101;-75
2021/06/27 08:39:27;;;;;;;21.52;13.50;;;;;;;;;;4973451;28;20034;-75
2021/06/27 08:41:53;;;;;;;22.05;13.57;;;;;;;;;;5004621;28;20081;-75
2021/06/27 08:44:20;;;;;;;23.73;16.58;;;;;;;;;;4971908;28;20034;-76
2021/06/27 08:46:47;;;;;;;15.73;13.23;;;;;;;;;;4973290;28;20034;-75
2021/06/27 08:49:13;;;;;;;18.73;13.45;;;;;;;;;;4973395;28;20077;-76
2021/06/27 08:51:40;;;;;;;16.30;12.52;;;;;;;;;;4972031;28;20402;-75
2021/06/27 08:54:07;;;;;;;19.25;13.93;;;;;;;;;;4971780;28;20022;-75
2021/06/27 08:56:36;;;;;;;19.65;14.18;;;;;;;;;;4971902;28;20545;-76
2021/06/27 08:59:02;;;;;;;18.02;12.30;;;;;;;;;;4972890;28;20391;-75
2021/06/27 09:01:28;;;;;;;16.88;11.70;;;;;;;;;;4972104;28;20026;-76
2021/06/27 09:03:56;;;;;;;13.98;9.35;;;;;;;;;;4972067;28;20027;-75
2021/06/27 09:06:40;;;;;;;13.70;9.52;;;;;;;;;;4973061;28;20106;-77
2021/06/27 09:09:16;;;;;;;16.02;10.00;;;;;;;;;;4972771;28;20030;-76
2021/06/27 09:12:08;;;;;;;12.10;9.48;;;;;;;;;;4971034;28;20035;-77
2021/06/27 09:14:43;;;;;;;13.75;9.52;;;;;;;;;;5003904;28;20376;-76
2021/06/27 09:17:10;;;;;;;14.13;10.02;;;;;;;;;;4972642;28;20113;-76
2021/06/27 09:19:58;;;;;;;12.63;9.63;;;;;;;;;;4972748;28;20027;-75
2021/06/27 09:22:41;;;;;;;11.55;8.45;;;;;;;;;;4987938;28;20062;-77
2021/06/27 09:25:25;;;;;;;11.32;8.55;;;;;;;;;;4972917;28;20023;-75
2021/06/27 09:28:15;;;;;;;21.23;10.05;;;;;;;;;;4972022;28;20046;-76
2021/06/27 09:30:54;;;;;;;12.95;8.98;;;;;;;;;;4972897;28;20022;-75
2021/06/27 09:33:27;;;;;;;12.13;8.07;;;;;;;;;;4972539;28;20387;-76
2021/06/27 09:36:01;;;;;;;8.75;7.43;;;;;;;;;;4972343;28;20030;-76
2021/06/27 09:38:41;;;;;;;10.88;7.35;;;;;;;;;;4987641;28;20118;-76
2021/06/27 09:41:24;;;;;;;11.80;7.40;;;;;;;;;;4972184;28;20232;-77
2021/06/27 09:43:58;;;;;;;13.10;9.45;;;;;;;;;;4972545;28;20031;-74
2021/06/27 09:46:46;;;;;;;11.23;8.13;;;;;;;;;;5003414;28;20031;-76
2021/06/27 09:49:17;;;;;;;12.93;9.23;;;;;;;;;;4972095;28;20054;-76
2021/06/27 09:52:06;;;;;;;;;;;;;;;;;;4987454;28;20030;-76
2021/06/27 09:54:31;;;;;;;10.88;8.60;;;;;;;;;;4970466;28;19968;-76
2021/06/27 09:56:58;;;;;;;9.90;8.13;;;;;;;;;;4986699;28;20554;-75
2021/06/27 09:59:34;;;;;;;8.57;7.18;;;;;;;;;;4970782;28;20033;-76
2021/06/27 10:02:00;;;;;;;11.93;7.18;;;;;;;;;;4972170;28;20081;-75
2021/06/27 10:04:29;;;;;;;9.73;7.45;;;;;;;;;;4970679;28;20069;-75
2021/06/27 10:06:56;;;;;;;9.80;7.22;;;;;;;;;;4971977;28;20050;-75
2021/06/27 10:09:24;;;;;;;9.82;7.32;;;;;;;;;;4971334;28;20041;-75
2021/06/27 10:12:01;;;;;;;11.02;7.85;;;;;;;;;;4970444;28;20030;-76
2021/06/27 10:14:34;;;;;;;11.15;8.25;;;;;;;;;;4970273;28;20506;-75
2021/06/27 10:17:02;;;;;;;9.68;8.68;;;;;;;;;;4971593;28;20053;-74
2021/06/27 10:19:29;;;;;;;11.80;8.75;;;;;;;;;;4970202;28;20033;-75
2021/06/27 10:21:56;;;;;;;14.77;8.57;;;;;;;;;;4972261;28;20489;-75
2021/06/27 10:24:22;;;;;;;12.38;8.70;;;;;;;;;;4971273;28;20037;-76
2021/06/27 10:26:48;;;;;;;10.85;8.65;;;;;;;;;;4970279;28;20533;-76
2021/06/27 10:29:17;;;;;;;12.05;7.97;;;;;;;;;;4986264;28;20027;-76
2021/06/27 10:31:43;;;;;;;10.15;7.32;;;;;;;;;;4970306;28;20070;-76
2021/06/27 10:34:09;;;;;;;11.02;7.20;;;;;;;;;;4986162;28;20515;-76
2021/06/27 10:36:38;;;;;;;8.40;7.50;;;;;;;;;;4971237;28;20110;-76
2021/06/27 10:39:11;;;;;;;8.90;7.22;;;;;;;;;;4970130;28;20103;-76
2021/06/27 10:41:50;;;;;;;8.85;7.80;;;;;;;;;;4971148;28;20078;-76
2021/06/27 10:44:19;;;;;;;10.15;6.85;;;;;;;;;;4969714;28;20085;-76
2021/06/27 10:46:48;;;;;;;9.15;7.30;;;;;;;;;;4969981;28;20231;-75
2021/06/27 10:49:35;;;;;;;11.18;7.72;;;;;;;;;;4985610;28;20029;-75
2021/06/27 10:52:07;;;;;;;9.52;7.40;;;;;;;;;;4971194;28;20081;-76
2021/06/27 10:55:28;;;;;;;13.30;8.00;;;;;;;;;;4969449;28;20051;-75
2021/06/27 10:58:00;;;;;;;11.90;7.50;;;;;;;;;;4960396;28;20031;-77
2021/06/27 11:00:28;;;;;;;10.40;7.43;;;;;;;;;;4971040;28;20030;-76
2021/06/27 11:02:54;;;;;;;10.73;7.63;;;;;;;;;;4985780;28;20030;-75
2021/06/27 11:05:32;;;;;;;9.88;7.70;;;;;;;;;;4970978;28;20027;-76
2021/06/27 11:07:59;;;;;;;8.52;7.40;;;;;;;;;;4970493;28;20487;-77
2021/06/27 11:10:25;;;;;;;10.50;7.22;;;;;;;;;;4968926;28;20030;-76
2021/06/27 11:13:07;;;;;;;9.15;6.95;;;;;;;;;;4985452;28;20137;-76
2021/06/27 11:15:35;;;;;;;10.13;8.15;;;;;;;;;;4985432;28;20105;-75
2021/06/27 11:18:06;;;;;;;9.95;8.20;;;;;;;;;;4969260;28;20275;-77
2021/06/27 11:20:51;;;;;;;17.00;8.88;;;;;;;;;;4970831;28;20035;-76
2021/06/27 11:23:17;;;;;;;11.15;8.80;;;;;;;;;;4970592;28;20166;-76
2021/06/27 11:25:46;;;;;;;15.70;7.80;;;;;;;;;;4969137;28;20118;-75
2021/06/27 11:28:18;;;;;;;10.30;7.88;;;;;;;;;;4970429;28;20031;-76
2021/06/27 11:30:54;;;;;;;10.30;7.72;;;;;;;;;;4970582;28;20491;-74
2021/06/27 11:33:26;;;;;;;9.57;7.43;;;;;;;;;;4968890;28;20042;-76
2021/06/27 11:35:56;;;;;;;8.55;7.22;;;;;;;;;;5001001;28;20038;-77
2021/06/27 11:38:48;;;;;;;9.32;7.00;;;;;;;;;;4970045;28;20118;-76
2021/06/27 11:41:20;;;;;;;10.52;7.45;;;;;;;;;;4984462;28;20023;-75
2021/06/27 11:44:30;;;;;;;8.38;7.03;;;;;;;;;;4969706;28;20031;-76
2021/06/27 11:46:55;;;;;;;8.80;7.22;;;;;;;;;;4967483;28;20319;-76
2021/06/27 11:49:31;;;;;;;12.50;6.78;;;;;;;;;;4969460;28;20031;-76
2021/06/27 11:51:57;;;;;;;8.38;6.70;;;;;;;;;;4975474;28;20034;-75
2021/06/27 11:54:29;;;;;;;11.68;6.85;;;;;;;;;;4976258;28;20046;-75
2021/06/27 11:56:57;;;;;;;8.65;6.80;;;;;;;;;;5007754;28;20109;-75
2021/06/27 11:59:26;;;;;;;8.20;6.22;;;;;;;;;;4975074;28;20494;-76
2021/06/27 12:02:22;;;;;;;6.57;5.57;;;;;;;;;;4976727;28;20518;-76
2021/06/27 12:04:51;;;;;;;6.40;5.78;;;;;;;;;;4976828;28;20486;-76
2021/06/27 12:07:32;;;;;;;7.70;6.75;;;;;;;;;;4975081;28;20097;-75
2021/06/27 12:12:50;;;;;;;6.72;5.68;;;;;;;;;;4976765;28;20027;-75
2021/06/27 12:15:18;;;;;;;7.07;6.00;;;;;;;;;;4976691;28;20019;-76
2021/06/27 12:17:55;;;;;;;9.65;5.97;;;;;;;;;;4991267;28;20077;-75
2021/06/27 12:20:21;;;;;;;7.00;5.50;;;;;;;;;;4976740;28;20027;-77
2021/06/27 12:22:49;;;;;;;7.68;6.47;;;;;;;;;;4976652;28;20079;-76
2021/06/27 12:25:15;;;;;;;7.93;6.00;;;;;;;;;;4976253;28;20030;-76
2021/06/27 12:27:49;;;;;;;5.55;4.95;;;;;;;;;;4975459;28;20026;-76
2021/06/27 12:30:15;;;;;;;6.60;5.97;;;;;;;;;;4991241;28;20058;-76
2021/06/27 12:33:01;;;;;;;6.63;5.55;;;;;;;;;;5007380;28;20066;-75
2021/06/27 12:35:29;;;;;;;7.28;6.47;;;;;;;;;;4974638;28;20030;-76
2021/06/27 12:37:55;;;;;;;8.05;6.95;;;;;;;;;;4991275;28;20425;-77
2021/06/27 12:40:22;;;;;;;7.75;5.78;;;;;;;;;;4976104;28;20026;-76
2021/06/27 12:42:48;;;;;;;8.27;6.82;;;;;;;;;;4976325;28;20045;-76
2021/06/27 12:45:20;;;;;;;7.85;6.53;;;;;;;;;;4976156;28;20391;-76
2021/06/27 12:47:49;;;;;;;11.77;6.72;;;;;;;;;;4976379;28;20106;-76
2021/06/27 12:50:15;;;;;;;7.88;6.50;;;;;;;;;;4976117;28;20058;-76
2021/06/27 12:52:42;;;;;;;8.93;5.90;;;;;;;;;;4975164;28;20027;-76
2021/06/27 12:55:16;;;;;;;9.55;5.82;;;;;;;;;;4975823;28;20053;-76
2021/06/27 12:57:55;;;;;;;7.80;5.60;;;;;;;;;;4974738;28;20046;-76
2021/06/27 13:00:20;;;;;;;6.40;5.13;;;;;;;;;;4975966;28;20038;-76
2021/06/27 13:02:49;;;;;;;5.70;5.20;;;;;;;;;;4987762;28;20026;-76
2021/06/27 13:05:17;;;;;;;13.75;6.00;;;;;;;;;;4988188;28;20031;-76
2021/06/27 13:07:55;;;;;;;6.20;5.55;;;;;;;;;;4973895;28;20450;-76
2021/06/27 13:10:23;;;;;;;7.35;5.60;;;;;;;;;;4972443;28;20050;-76
2021/06/27 13:12:51;;;;;;;6.13;5.30;;;;;;;;;;5003785;28;20156;-77
2021/06/27 13:15:22;;;;;;;7.07;5.45;;;;;;;;;;4987600;28;20499;-76
2021/06/27 13:17:50;;;;;;;8.55;5.85;;;;;;;;;;4973164;28;20026;-76
2021/06/27 13:20:34;;;;;;;6.88;6.10;;;;;;;;;;4972935;28;20423;-76
2021/06/27 13:23:09;;;;;;;6.22;5.63;;;;;;;;;;4972745;28;20077;-76
2021/06/27 13:25:40;;;;;;;8.77;7.47;;;;;;;;;;4987443;28;20054;-75
2021/06/27 13:28:34;;;;;;;9.25;7.70;;;;;;;;;;4972703;28;20545;-75
2021/06/27 13:31:11;;;;;;;7.85;6.03;;;;;;;;;;4969011;28;20058;-76
2021/06/27 13:33:44;;;;;;;7.07;6.32;;;;;;;;;;4972669;28;20068;-75
2021/06/27 13:36:29;;;;;;;11.52;7.00;;;;;;;;;;4972186;28;20035;-76
2021/06/27 13:39:01;;;;;;;8.35;7.13;;;;;;;;;;4987430;28;20646;-77
2021/06/27 13:41:28;;;;;;;7.13;6.35;;;;;;;;;;4970684;28;20030;-75
2021/06/27 13:43:55;;;;;;;6.72;5.90;;;;;;;;;;4970928;28;20042;-77
2021/06/27 13:46:22;;;;;;;7.97;6.35;;;;;;;;;;4972356;28;20027;-76
2021/06/27 13:48:47;;;;;;;9.77;5.65;;;;;;;;;;4972549;28;20026;-76
2021/06/27 13:51:15;;;;;;;9.13;5.68;;;;;;;;;;4972003;28;20030;-76
2021/06/27 13:53:41;;;;;;;5.90;5.18;;;;;;;;;;4972192;28;20030;-76
2021/06/27 13:56:16;;;;;;;8.45;5.85;;;;;;;;;;4986644;28;20054;-76
2021/06/27 13:58:47;;;;;;;7.90;5.10;;;;;;;;;;4972286;28;20023;-77
2021/06/27 14:01:16;;;;;;;7.70;5.60;;;;;;;;;;5003174;28;20130;-76
2021/06/27 14:03:41;;;;;;;5.28;4.78;;;;;;;;;;4970843;28;20022;-77
2021/06/27 14:06:07;;;;;;;5.32;4.82;;;;;;;;;;4972126;28;20029;-75
2021/06/27 14:08:33;;;;;;;5.53;5.03;;;;;;;;;;4970360;28;20070;-76
2021/06/27 14:11:02;;;;;;;6.57;5.68;;;;;;;;;;4970455;28;20030;-75
2021/06/27 14:13:38;;;;;;;5.40;4.90;;;;;;;;;;4985096;28;20030;-76
2021/06/27 14:16:05;;;;;;;7.88;5.28;;;;;;;;;;4986902;28;20479;-77
2021/06/27 14:18:31;;;;;;;6.18;5.18;;;;;;;;;;5003131;28;20038;-76
2021/06/27 14:20:57;;;;;;;7.15;4.32;;;;;;;;;;4970188;28;20081;-76
2021/06/27 14:23:23;;;;;;;5.63;4.72;;;;;;;;;;4971460;28;20372;-77
2021/06/27 14:25:49;;;;;;;6.22;4.68;;;;;;;;;;4986378;28;20034;-77
2021/06/27 14:28:15;;;;;;;6.82;6.15;;;;;;;;;;4971571;28;20026;-75
2021/06/27 14:30:42;;;;;;;5.68;4.82;;;;;;;;;;4969933;28;20034;-76
2021/06/27 14:33:08;;;;;;;6.68;4.72;;;;;;;;;;4971671;28;20027;-76
2021/06/27 14:35:34;;;;;;;4.88;4.43;;;;;;;;;;5002588;28;20039;-76
2021/06/27 14:37:59;;;;;;;4.70;4.30;;;;;;;;;;4970080;28;20122;-75